Time;durP1;ratioP1;P1;durP2;ratioP2;P2;SDS_P1;SDS_P2;PMS_P1;PMS_P2;Temp;Humidity;BMP_temperature;BMP_pressure;BME280_temperature;BME280_humidity;BME280_pressure;Samples;Min_cycle;Max_cycle;Signal;HPM_P1;HPM_P2
2022/08/13 00:02:16;;;;;;;2.50;2.40;;;18.60;99.90;;;;;;7374382;19;20324;-76
2022/08/13 00:04:51;;;;;;;2.72;2.38;;;18.60;99.90;;;;;;7373661;19;20403;-76
2022/08/13 00:07:16;;;;;;;2.72;2.53;;;18.60;99.90;;;;;;7383002;19;20317;-75
2022/08/13 00:09:43;;;;;;;2.87;2.57;;;18.50;99.90;;;;;;7383651;19;20312;-76
2022/08/13 00:15:28;;;;;;;2.65;2.45;;;18.40;99.90;;;;;;7381525;19;20321;-76
2022/08/13 00:17:56;;;;;;;2.60;2.40;;;18.40;99.90;;;;;;7279231;19;2004443;-76
2022/08/13 00:20:23;;;;;;;2.65;2.45;;;18.30;99.90;;;;;;7382318;19;20435;-77
2022/08/13 00:22:48;;;;;;;2.50;2.30;;;18.30;99.90;;;;;;7383617;19;20344;-75
2022/08/13 00:25:14;;;;;;;2.77;2.40;;;18.30;99.90;;;;;;7373195;19;20341;-75
2022/08/13 00:27:47;;;;;;;2.70;2.50;;;18.30;99.90;;;;;;7381799;19;20329;-75
2022/08/13 00:30:15;;;;;;;2.63;2.43;;;18.20;99.90;;;;;;7382935;19;20301;-75
2022/08/13 00:32:43;;;;;;;2.83;2.63;;;18.20;99.90;;;;;;7384625;19;20324;-75
2022/08/13 00:35:08;;;;;;;2.92;2.72;;;18.20;99.90;;;;;;7378263;19;20308;-75
2022/08/13 00:37:36;;;;;;;2.70;2.50;;;18.10;99.90;;;;;;7380762;19;20311;-74
2022/08/13 00:40:02;;;;;;;2.63;2.42;;;18.10;99.90;;;;;;7383678;19;20308;-75
2022/08/13 00:42:28;;;;;;;2.78;2.58;;;18.10;99.90;;;;;;7380434;19;20311;-74
2022/08/13 00:44:53;;;;;;;2.70;2.50;;;18.10;99.90;;;;;;7379539;19;20858;-74
2022/08/13 00:50:04;;;;;;;2.85;2.65;;;18.10;99.90;;;;;;7380283;19;20340;-76
2022/08/13 00:52:30;;;;;;;3.05;2.55;;;18.10;99.90;;;;;;7380240;19;20312;-76
2022/08/13 00:55:00;;;;;;;2.70;2.50;;;18.10;99.90;;;;;;7375043;19;20854;-76
2022/08/13 00:57:28;;;;;;;2.50;2.30;;;18.00;99.90;;;;;;7380088;19;20361;-76
2022/08/13 00:59:54;;;;;;;3.00;2.70;;;18.10;99.90;;;;;;7380040;19;20356;-78
2022/08/13 01:02:21;;;;;;;3.00;2.80;;;18.10;99.90;;;;;;7379609;19;20335;-76
2022/08/13 01:04:46;;;;;;;2.90;2.60;;;18.00;99.90;;;;;;7377556;19;20376;-75
2022/08/13 01:07:15;;;;;;;2.88;2.67;;;18.00;99.90;;;;;;7377831;19;20885;-74
2022/08/13 01:09:40;;;;;;;2.95;2.75;;;18.00;99.90;;;;;;7379767;19;20321;-73
2022/08/13 01:12:09;;;;;;;2.60;2.40;;;17.90;99.90;;;;;;7380868;19;20351;-74
2022/08/13 01:14:35;;;;;;;2.80;2.60;;;17.90;99.90;;;;;;7377879;19;21195;-74
2022/08/13 01:17:01;;;;;;;3.08;2.80;;;17.80;99.90;;;;;;7378806;19;20333;-74
2022/08/13 01:19:26;;;;;;;2.88;2.67;;;17.80;99.90;;;;;;7378395;19;21331;-74
2022/08/13 01:21:52;;;;;;;2.83;2.63;;;17.80;99.90;;;;;;7379996;19;20377;-75
2022/08/13 01:24:20;;;;;;;2.92;2.72;;;17.80;99.90;;;;;;7377412;19;20885;-75
2022/08/13 01:26:45;;;;;;;3.00;2.70;;;17.70;99.90;;;;;;7377864;19;20348;-74
2022/08/13 01:29:11;;;;;;;2.90;2.70;;;17.70;99.90;;;;;;7379148;19;20340;-74
2022/08/13 01:31:40;;;;;;;3.13;2.75;;;17.70;99.90;;;;;;7378093;19;20301;-74
2022/08/13 01:34:05;;;;;;;2.85;2.63;;;17.50;99.90;;;;;;7376202;19;20348;-74
2022/08/13 01:36:32;;;;;;;3.90;3.10;;;17.60;99.90;;;;;;7377609;19;20344;-74
2022/08/13 01:39:01;;;;;;;2.97;2.70;;;17.50;99.90;;;;;;7379210;19;20328;-74
2022/08/13 01:41:27;;;;;;;2.90;2.60;;;17.50;99.90;;;;;;7377731;19;20425;-75
2022/08/13 01:43:53;;;;;;;3.10;2.90;;;17.60;99.90;;;;;;7377157;19;20428;-74
2022/08/13 01:46:18;;;;;;;3.30;3.00;;;17.60;99.90;;;;;;7378837;19;20341;-73
2022/08/13 01:51:45;;;;;;;3.27;3.07;;;17.50;99.90;;;;;;7273345;19;2004378;-75
2022/08/13 01:54:11;;;;;;;3.50;3.20;;;17.50;99.90;;;;;;7376021;19;20344;-74
2022/08/13 01:56:37;;;;;;;3.75;3.45;;;17.60;99.90;;;;;;7377183;19;21112;-74
2022/08/13 01:59:03;;;;;;;3.77;3.47;;;17.50;99.90;;;;;;7378150;19;20331;-75
2022/08/13 02:01:30;;;;;;;3.92;3.63;;;17.50;99.90;;;;;;7375669;19;20302;-74
2022/08/13 02:03:56;;;;;;;3.50;3.20;;;17.50;99.90;;;;;;7377037;19;20352;-75
2022/08/13 02:06:23;;;;;;;3.78;3.47;;;17.50;99.90;;;;;;7377469;19;20336;-75
2022/08/13 02:08:52;;;;;;;4.13;3.80;;;17.50;99.90;;;;;;7377109;19;21275;-75
2022/08/13 02:11:18;;;;;;;3.42;3.17;;;17.50;99.90;;;;;;7376592;19;20885;-74
2022/08/13 02:13:44;;;;;;;4.60;3.20;;;17.50;99.90;;;;;;7376700;19;20341;-76
2022/08/13 02:16:10;;;;;;;3.42;3.00;;;17.50;99.90;;;;;;7376990;19;20972;-75
2022/08/13 02:18:35;;;;;;;3.23;2.93;;;17.60;99.90;;;;;;7378795;19;20304;-75
2022/08/13 02:21:02;;;;;;;3.45;3.10;;;17.60;99.90;;;;;;7375272;19;21149;-75
2022/08/13 02:23:32;;;;;;;3.33;3.00;;;17.60;99.90;;;;;;7379312;19;20329;-75
2022/08/13 02:25:59;;;;;;;3.00;2.80;;;17.60;99.90;;;;;;7375510;19;20345;-74
2022/08/13 02:28:25;;;;;;;3.05;2.85;;;17.60;99.90;;;;;;7375687;19;20340;-74
2022/08/13 02:30:56;;;;;;;6.30;3.30;;;17.60;99.90;;;;;;7376502;19;20340;-74
2022/08/13 02:33:22;;;;;;;3.83;3.53;;;17.60;99.90;;;;;;7376975;19;20335;-75
2022/08/13 02:35:47;;;;;;;3.05;2.85;;;17.60;99.90;;;;;;7375689;19;20407;-76
2022/08/13 02:38:13;;;;;;;3.30;3.00;;;17.60;99.90;;;;;;7378661;19;20451;-75
2022/08/13 02:43:24;;;;;;;3.70;3.40;;;17.60;99.90;;;;;;7377737;19;20341;-75
2022/08/13 02:45:53;;;;;;;3.00;2.80;;;17.60;99.90;;;;;;7375455;19;20857;-75
2022/08/13 02:48:23;;;;;;;3.30;3.00;;;17.60;99.90;;;;;;7377503;19;20372;-75
2022/08/13 02:50:49;;;;;;;3.30;3.10;;;17.60;99.90;;;;;;7376811;19;20337;-75
2022/08/13 02:53:14;;;;;;;3.37;3.07;;;17.60;99.90;;;;;;7376909;19;20336;-74
2022/08/13 02:55:41;;;;;;;3.42;3.13;;;17.60;99.90;;;;;;7373203;19;20427;-77
2022/08/13 02:58:07;;;;;;;3.10;2.90;;;17.60;99.90;;;;;;7378662;19;20336;-74
2022/08/13 03:00:33;;;;;;;3.47;3.17;;;17.60;99.90;;;;;;7376044;19;21036;-74
2022/08/13 03:02:59;;;;;;;3.07;2.77;;;17.60;99.90;;;;;;7376287;19;20341;-74
2022/08/13 03:05:27;;;;;;;3.33;3.03;;;17.60;99.90;;;;;;7372185;19;20345;-75
2022/08/13 03:07:52;;;;;;;3.40;3.10;;;17.50;99.90;;;;;;7376065;19;20351;-74
2022/08/13 03:10:18;;;;;;;3.60;3.27;;;17.50;99.90;;;;;;7376475;19;20464;-75
2022/08/13 03:12:46;;;;;;;4.03;3.67;;;17.50;99.90;;;;;;7375088;19;20324;-75
2022/08/13 03:15:13;;;;;;;3.40;3.10;;;17.40;99.90;;;;;;7372745;19;20429;-75
2022/08/13 03:17:39;;;;;;;3.60;2.95;;;17.50;99.90;;;;;;7375961;19;20345;-75
2022/08/13 03:20:09;;;;;;;3.35;3.00;;;17.50;99.90;;;;;;7376983;19;20336;-75
2022/08/13 03:22:51;;;;;;;7.82;3.30;;;17.40;99.90;;;;;;7376875;19;20305;-74
2022/08/13 03:25:16;;;;;;;3.50;3.05;;;17.50;99.90;;;;;;7255688;19;2004763;-75
2022/08/13 03:27:42;;;;;;;3.50;3.20;;;17.50;99.90;;;;;;7373490;19;20324;-75
2022/08/13 03:30:11;;;;;;;3.60;3.30;;;17.40;99.90;;;;;;7374489;19;20679;-75
2022/08/13 03:32:40;;;;;;;3.55;3.25;;;17.40;99.90;;;;;;7377407;19;20388;-75
2022/08/13 03:35:09;;;;;;;3.67;3.37;;;17.40;99.90;;;;;;7372600;19;20354;-75
2022/08/13 03:37:36;;;;;;;3.70;3.40;;;17.40;99.90;;;;;;7374558;19;20322;-74
2022/08/13 03:40:02;;;;;;;3.80;3.50;;;17.40;99.90;;;;;;7382961;19;21148;-75
2022/08/13 03:42:28;;;;;;;3.70;3.40;;;17.40;99.90;;;;;;7389598;19;20301;-75
2022/08/13 03:44:54;;;;;;;4.57;3.28;;;17.40;99.90;;;;;;7385048;19;20395;-75
2022/08/13 03:47:19;;;;;;;3.92;3.50;;;17.40;99.90;;;;;;7392331;19;20356;-75
2022/08/13 03:49:46;;;;;;;3.42;3.22;;;17.40;99.90;;;;;;7390157;19;20304;-75
2022/08/13 03:52:13;;;;;;;3.60;3.30;;;17.50;99.90;;;;;;7390045;19;20371;-75
2022/08/13 03:54:39;;;;;;;3.53;3.22;;;17.40;99.90;;;;;;7386742;19;20833;-75
2022/08/13 03:57:04;;;;;;;3.50;3.20;;;17.50;99.90;;;;;;7391111;19;20396;-75
2022/08/13 03:59:31;;;;;;;3.83;3.53;;;17.40;99.90;;;;;;7391605;19;20328;-76
2022/08/13 04:01:59;;;;;;;3.70;3.40;;;17.50;99.90;;;;;;7390704;19;20340;-76
2022/08/13 04:04:25;;;;;;;3.50;3.20;;;17.50;99.90;;;;;;7386970;19;20391;-76
2022/08/13 04:06:52;;;;;;;4.30;3.50;;;17.50;99.90;;;;;;7387200;19;20732;-75
2022/08/13 04:09:17;;;;;;;4.07;3.78;;;17.50;99.90;;;;;;7390222;19;20479;-75
2022/08/13 04:11:43;;;;;;;4.22;3.50;;;17.50;99.90;;;;;;7389534;19;20399;-75
2022/08/13 04:14:09;;;;;;;3.73;3.40;;;17.40;99.90;;;;;;7387272;19;20344;-75
2022/08/13 04:16:34;;;;;;;3.73;3.43;;;17.50;99.90;;;;;;7388277;19;20363;-75
2022/08/13 04:19:03;;;;;;;3.63;3.05;;;17.40;99.90;;;;;;7386775;19;20350;-75
2022/08/13 04:21:31;;;;;;;3.40;3.20;;;17.50;99.90;;;;;;7392256;19;20337;-74
2022/08/13 04:23:57;;;;;;;3.25;3.05;;;17.50;99.90;;;;;;7387123;19;21116;-75
2022/08/13 04:26:23;;;;;;;4.10;3.20;;;17.60;99.90;;;;;;7389996;19;20382;-75
2022/08/13 04:28:50;;;;;;;3.67;3.38;;;17.60;99.90;;;;;;7389203;19;20983;-75
2022/08/13 04:31:16;;;;;;;4.60;3.22;;;17.60;99.90;;;;;;7385553;19;20340;-75
2022/08/13 04:33:42;;;;;;;3.60;3.10;;;17.60;99.90;;;;;;7387897;19;21221;-75
2022/08/13 04:36:07;;;;;;;3.55;3.25;;;17.60;99.90;;;;;;7388180;19;20419;-75
2022/08/13 04:38:34;;;;;;;3.50;3.20;;;17.60;99.90;;;;;;7389061;19;21030;-75
2022/08/13 04:41:01;;;;;;;3.10;2.90;;;17.70;99.90;;;;;;7387829;19;20344;-75
2022/08/13 04:43:27;;;;;;;4.30;3.90;;;17.70;99.90;;;;;;7387724;19;20951;-75
2022/08/13 04:45:52;;;;;;;3.35;3.08;;;17.70;99.90;;;;;;7385339;19;20365;-76
2022/08/13 04:48:18;;;;;;;3.43;3.17;;;17.60;99.90;;;;;;7388611;19;20399;-75
2022/08/13 04:50:45;;;;;;;3.92;3.10;;;17.70;99.90;;;;;;7383633;19;20321;-76
2022/08/13 04:53:24;;;;;;;3.60;3.30;;;17.70;99.90;;;;;;7380737;19;20387;-75
2022/08/13 04:55:49;;;;;;;3.72;3.42;;;17.80;99.90;;;;;;7379763;19;20353;-75
2022/08/13 04:58:15;;;;;;;3.40;3.10;;;17.80;99.90;;;;;;7380358;19;20362;-75
2022/08/13 05:00:41;;;;;;;3.83;3.53;;;17.80;99.90;;;;;;7376837;19;20384;-74
2022/08/13 05:03:13;;;;;;;3.70;3.30;;;17.80;99.90;;;;;;7380563;19;20336;-75
2022/08/13 05:05:40;;;;;;;3.72;3.42;;;17.80;99.90;;;;;;7274130;19;2005199;-75
2022/08/13 05:08:07;;;;;;;4.25;3.88;;;17.90;99.90;;;;;;7381037;19;20860;-75
2022/08/13 05:10:36;;;;;;;5.57;3.78;;;17.90;99.90;;;;;;7380740;19;20313;-75
2022/08/13 05:13:01;;;;;;;3.70;3.40;;;17.90;99.90;;;;;;7380500;19;20380;-75
2022/08/13 05:15:28;;;;;;;3.67;3.37;;;17.90;99.90;;;;;;7377992;19;20371;-76
2022/08/13 05:17:53;;;;;;;3.90;3.58;;;18.00;99.90;;;;;;7383055;19;20352;-76
2022/08/13 05:20:19;;;;;;;4.28;3.75;;;18.00;99.90;;;;;;7379587;19;20321;-75
2022/08/13 05:22:45;;;;;;;4.43;4.03;;;18.10;99.90;;;;;;7380375;19;20420;-75
2022/08/13 05:25:14;;;;;;;4.07;3.67;;;18.10;99.90;;;;;;7375534;19;20434;-76
2022/08/13 05:27:43;;;;;;;4.33;3.93;;;18.20;99.90;;;;;;7379316;19;20333;-75
2022/08/13 05:30:09;;;;;;;4.70;4.30;;;18.30;99.90;;;;;;7380489;19;20332;-75
2022/08/13 05:32:38;;;;;;;4.43;4.10;;;18.30;99.90;;;;;;7380353;19;20346;-75
2022/08/13 05:35:13;;;;;;;4.63;4.22;;;18.40;99.90;;;;;;7376724;19;20333;-75
2022/08/13 05:37:39;;;;;;;4.40;4.00;;;18.50;99.90;;;;;;7275252;19;2020138;-75
2022/08/13 05:40:05;;;;;;;4.55;4.15;;;18.60;99.90;;;;;;7380500;19;20332;-75
2022/08/13 05:42:33;;;;;;;4.65;4.15;;;18.80;99.90;;;;;;7380294;19;20339;-74
2022/08/13 05:44:59;;;;;;;4.40;4.10;;;18.90;99.90;;;;;;7377901;19;20340;-74
2022/08/13 05:47:25;;;;;;;5.07;4.65;;;18.90;99.90;;;;;;7379425;19;20813;-75
2022/08/13 05:49:54;;;;;;;5.10;4.60;;;19.10;99.90;;;;;;7378149;19;20359;-75
2022/08/13 05:52:19;;;;;;;4.65;4.25;;;19.10;99.90;;;;;;7379107;19;20329;-75
2022/08/13 05:54:45;;;;;;;4.97;4.50;;;19.20;99.90;;;;;;7375391;19;20317;-75
2022/08/13 05:57:10;;;;;;;4.70;4.30;;;19.30;99.90;;;;;;7380647;19;20408;-76
2022/08/13 06:05:05;;;;;;;4.95;4.47;;;19.70;99.90;;;;;;7368798;19;20336;-76
2022/08/13 06:07:31;;;;;;;4.77;4.37;;;19.80;99.90;;;;;;7375043;19;20327;-76
2022/08/13 06:09:57;;;;;;;4.68;4.18;;;19.90;99.90;;;;;;7374631;19;20349;-76
2022/08/13 06:12:23;;;;;;;4.10;3.70;;;20.00;99.90;;;;;;7377133;19;21052;-75
2022/08/13 06:14:50;;;;;;;5.07;4.60;;;20.10;99.90;;;;;;7374869;19;20341;-76
2022/08/13 06:17:16;;;;;;;4.57;4.18;;;20.20;99.90;;;;;;7370490;19;20340;-76
2022/08/13 06:19:43;;;;;;;4.43;4.00;;;20.20;99.90;;;;;;7373844;19;20341;-76
2022/08/13 06:22:09;;;;;;;4.38;4.00;;;20.30;99.90;;;;;;7373919;19;20706;-74
2022/08/13 06:24:37;;;;;;;4.93;4.47;;;20.40;99.90;;;;;;7373926;19;20341;-74
2022/08/13 06:27:06;;;;;;;4.75;4.35;;;20.50;99.90;;;;;;7374943;19;20347;-73
2022/08/13 06:29:34;;;;;;;5.30;4.80;;;20.70;99.90;;;;;;7378121;19;20857;-74
2022/08/13 06:32:00;;;;;;;4.93;4.43;;;20.70;99.90;;;;;;7376691;19;20320;-74
2022/08/13 06:34:25;;;;;;;4.70;4.30;;;20.90;99.90;;;;;;7374052;19;21110;-74
2022/08/13 06:36:51;;;;;;;4.40;4.00;;;21.00;99.90;;;;;;7375141;19;20348;-73
2022/08/13 06:39:17;;;;;;;4.20;3.90;;;21.20;99.90;;;;;;7375084;19;20812;-74
2022/08/13 06:41:44;;;;;;;4.40;4.00;;;21.30;99.90;;;;;;7374537;19;20326;-74
2022/08/13 06:44:17;;;;;;;4.40;4.00;;;21.50;99.90;;;;;;7375163;19;20354;-74
2022/08/13 06:46:43;;;;;;;4.83;4.33;;;21.60;99.90;;;;;;7373433;19;21248;-74
2022/08/13 06:49:11;;;;;;;5.10;4.60;;;21.70;99.90;;;;;;7376787;19;21330;-74
2022/08/13 06:51:37;;;;;;;4.40;4.00;;;21.70;99.90;;;;;;7378392;19;20332;-74
2022/08/13 06:54:03;;;;;;;4.07;3.72;;;21.80;99.90;;;;;;7376387;19;20673;-74
2022/08/13 06:56:29;;;;;;;4.63;3.80;;;21.80;99.90;;;;;;7376287;19;20880;-74
2022/08/13 06:58:56;;;;;;;3.90;3.60;;;21.90;99.90;;;;;;7374825;19;20337;-74
2022/08/13 07:01:23;;;;;;;5.05;4.47;;;22.00;99.90;;;;;;7374522;19;20868;-74
2022/08/13 07:03:49;;;;;;;5.05;4.25;;;22.10;99.90;;;;;;7374541;19;20356;-74
2022/08/13 07:06:26;;;;;;;4.60;4.20;;;22.20;99.90;;;;;;7373218;19;20352;-74
2022/08/13 07:08:56;;;;;;;5.60;4.88;;;22.20;99.90;;;;;;7376150;19;20351;-74
2022/08/13 07:11:26;;;;;;;5.30;4.25;;;22.40;99.90;;;;;;7374843;19;20332;-74
2022/08/13 07:14:00;;;;;;;6.78;4.63;;;22.50;99.90;;;;;;7371670;19;20341;-74
2022/08/13 07:16:30;;;;;;;4.82;4.43;;;22.60;99.90;;;;;;7373149;19;20340;-74
2022/08/13 07:18:56;;;;;;;4.40;4.00;;;22.60;99.90;;;;;;7376380;19;20809;-74
2022/08/13 07:21:22;;;;;;;5.80;4.68;;;22.70;99.90;;;;;;7374106;19;21004;-75
2022/08/13 07:23:49;;;;;;;4.40;4.00;;;22.60;99.90;;;;;;7371138;19;20348;-73
2022/08/13 07:26:16;;;;;;;5.07;4.68;;;22.60;99.90;;;;;;7374411;19;20349;-72
2022/08/13 07:28:43;;;;;;;4.13;3.83;;;22.60;99.90;;;;;;7374934;19;20795;-73
2022/08/13 07:31:09;;;;;;;5.17;4.67;;;22.60;99.90;;;;;;7370863;19;20319;-73
2022/08/13 07:33:36;;;;;;;5.22;4.75;;;22.60;99.90;;;;;;7376004;19;21141;-73
2022/08/13 07:36:12;;;;;;;4.78;4.38;;;22.60;99.90;;;;;;7366823;19;20329;-73
2022/08/13 07:38:37;;;;;;;4.47;4.07;;;22.60;99.90;;;;;;7375699;19;20328;-73
2022/08/13 07:41:03;;;;;;;5.03;4.53;;;22.60;99.90;;;;;;7371603;19;20319;-73
2022/08/13 07:43:32;;;;;;;5.82;4.40;;;22.70;99.90;;;;;;7376512;19;20339;-73
2022/08/13 07:46:07;;;;;;;5.20;4.70;;;22.80;99.90;;;;;;7372379;19;20341;-73
2022/08/13 07:48:34;;;;;;;4.97;4.45;;;22.80;99.90;;;;;;7373400;19;20337;-74
2022/08/13 07:51:00;;;;;;;5.22;4.53;;;22.80;99.90;;;;;;7375309;19;21002;-73
2022/08/13 07:53:26;;;;;;;5.10;4.50;;;22.90;99.90;;;;;;7374991;19;20324;-73
2022/08/13 07:55:52;;;;;;;5.57;5.00;;;22.80;99.90;;;;;;7371588;19;20353;-73
2022/08/13 07:58:18;;;;;;;6.07;5.57;;;22.80;99.90;;;;;;7375515;19;20319;-73
2022/08/13 08:00:45;;;;;;;5.20;4.70;;;22.60;99.90;;;;;;7372981;19;20392;-73
2022/08/13 08:03:11;;;;;;;5.07;4.57;;;22.60;99.90;;;;;;7374273;19;20317;-73
2022/08/13 08:05:37;;;;;;;5.20;4.70;;;22.60;99.90;;;;;;7372000;19;20335;-73
2022/08/13 08:08:04;;;;;;;5.47;4.97;;;22.60;99.90;;;;;;7375324;19;20313;-73
2022/08/13 08:10:30;;;;;;;4.95;4.55;;;22.60;99.90;;;;;;7373711;19;20346;-73
2022/08/13 08:13:00;;;;;;;4.93;4.43;;;22.70;99.90;;;;;;7375391;19;20361;-73
2022/08/13 08:15:26;;;;;;;5.03;4.53;;;22.80;99.90;;;;;;7372506;19;20348;-73
2022/08/13 08:17:57;;;;;;;4.75;4.32;;;22.90;99.90;;;;;;7375993;19;20336;-73
2022/08/13 08:20:23;;;;;;;4.57;4.18;;;23.00;99.90;;;;;;7373472;19;20363;-73
2022/08/13 08:22:49;;;;;;;5.40;4.90;;;22.90;99.90;;;;;;7374304;19;20875;-73
2022/08/13 08:25:19;;;;;;;4.75;4.35;;;22.90;99.90;;;;;;7371777;19;20361;-73
2022/08/13 08:27:45;;;;;;;5.20;4.70;;;23.00;99.90;;;;;;7377540;19;20332;-73
2022/08/13 08:30:18;;;;;;;5.23;4.80;;;23.10;99.90;;;;;;7376969;19;20324;-73
2022/08/13 08:32:53;;;;;;;4.63;4.22;;;23.20;99.90;;;;;;7381614;19;20686;-74
2022/08/13 08:35:19;;;;;;;5.10;4.60;;;23.30;99.90;;;;;;7376896;19;20348;-74
2022/08/13 08:43:14;;;;;;;5.35;4.78;;;23.50;99.90;;;;;;7280721;19;2004567;-73
2022/08/13 08:45:40;;;;;;;4.90;4.50;;;23.50;99.90;;;;;;7378184;19;21167;-73
2022/08/13 08:48:06;;;;;;;5.53;5.00;;;23.60;99.90;;;;;;7378113;19;20372;-74
2022/08/13 08:50:32;;;;;;;6.97;4.20;;;23.70;99.90;;;;;;7381535;19;20850;-74
2022/08/13 08:55:43;;;;;;;5.38;4.85;;;23.90;99.90;;;;;;7274811;19;2004260;-74
2022/08/13 08:58:09;;;;;;;5.03;4.60;;;24.00;99.90;;;;;;7379216;19;20341;-74
2022/08/13 09:00:36;;;;;;;5.28;4.80;;;24.00;99.90;;;;;;7375952;19;20798;-74
2022/08/13 09:03:02;;;;;;;4.50;4.10;;;23.90;99.90;;;;;;7379454;19;20353;-74
2022/08/13 09:05:28;;;;;;;4.95;4.47;;;23.90;99.90;;;;;;7376499;19;20355;-73
2022/08/13 09:07:54;;;;;;;5.27;4.60;;;23.90;99.90;;;;;;7379180;19;20344;-74
2022/08/13 09:10:21;;;;;;;5.38;4.88;;;23.90;99.90;;;;;;7378864;19;21360;-74
2022/08/13 09:16:18;;;;;;;6.22;4.50;;;23.90;99.90;;;;;;7152454;19;2004519;-73
2022/08/13 09:18:44;;;;;;;4.70;4.30;;;23.90;99.90;;;;;;7373212;19;20332;-74
2022/08/13 09:21:09;;;;;;;4.88;4.50;;;24.00;99.90;;;;;;7379874;19;20358;-74
2022/08/13 09:23:35;;;;;;;6.17;5.17;;;23.80;99.90;;;;;;7371105;19;20921;-74
2022/08/13 09:26:02;;;;;;;5.70;4.83;;;23.60;99.90;;;;;;7374565;19;20340;-74
2022/08/13 09:28:27;;;;;;;5.10;4.68;;;23.30;99.90;;;;;;7376226;19;20333;-75
2022/08/13 09:30:54;;;;;;;5.13;4.63;;;23.20;99.90;;;;;;7377546;19;21165;-75
2022/08/13 09:33:21;;;;;;;5.03;4.23;;;22.80;99.90;;;;;;7379177;19;20296;-75
2022/08/13 09:35:48;;;;;;;4.65;4.25;;;22.60;99.90;;;;;;7376081;19;20325;-75
2022/08/13 09:38:15;;;;;;;4.25;3.85;;;22.60;99.90;;;;;;7375259;19;21086;-74
2022/08/13 09:40:56;;;;;;;4.60;4.20;;;22.60;99.90;;;;;;7376915;19;21455;-74
2022/08/13 09:43:22;;;;;;;3.92;3.63;;;22.70;99.90;;;;;;7376332;19;20392;-74
2022/08/13 09:45:48;;;;;;;4.43;4.03;;;22.70;99.90;;;;;;7376689;19;20344;-74
2022/08/13 09:48:15;;;;;;;4.70;4.10;;;22.80;99.90;;;;;;7378630;19;20356;-74
2022/08/13 09:50:41;;;;;;;4.35;3.95;;;22.70;99.90;;;;;;7377985;19;20385;-73
2022/08/13 09:53:07;;;;;;;4.57;4.18;;;22.80;99.90;;;;;;7375842;19;20352;-74
2022/08/13 09:55:35;;;;;;;4.40;4.00;;;22.80;99.90;;;;;;7373216;19;20333;-74
2022/08/13 09:58:01;;;;;;;4.60;4.20;;;22.90;99.90;;;;;;7378198;19;20345;-74
2022/08/13 10:00:28;;;;;;;4.03;3.72;;;22.90;99.90;;;;;;7377025;19;20348;-74
2022/08/13 10:02:56;;;;;;;5.00;4.50;;;23.00;99.90;;;;;;7377884;19;20352;-74
2022/08/13 10:05:23;;;;;;;3.97;3.60;;;22.90;99.90;;;;;;7369765;19;20396;-74
2022/08/13 10:07:48;;;;;;;5.43;4.73;;;22.90;99.90;;;;;;7375216;19;22951;-74
2022/08/13 10:10:14;;;;;;;4.22;3.92;;;22.70;99.90;;;;;;7374008;19;20451;-74
2022/08/13 10:12:40;;;;;;;4.97;4.20;;;22.70;99.90;;;;;;7370455;19;21264;-74
2022/08/13 10:15:08;;;;;;;4.13;3.63;;;22.60;99.90;;;;;;7369057;19;20763;-74
2022/08/13 10:17:52;;;;;;;6.75;4.20;;;22.70;99.90;;;;;;7375614;19;20340;-75
2022/08/13 10:20:19;;;;;;;4.38;3.90;;;22.70;99.90;;;;;;7375496;19;20337;-74
2022/08/13 10:22:45;;;;;;;4.60;4.20;;;22.90;99.90;;;;;;7374362;19;20857;-74
2022/08/13 10:25:11;;;;;;;4.87;4.37;;;23.00;99.90;;;;;;7373002;19;20334;-74
2022/08/13 10:27:37;;;;;;;4.57;4.18;;;23.20;99.90;;;;;;7377291;19;20316;-74
2022/08/13 10:30:04;;;;;;;4.28;3.90;;;23.30;99.90;;;;;;7372664;19;20336;-74
2022/08/13 10:32:30;;;;;;;5.68;4.88;;;23.50;99.90;;;;;;7380605;19;20349;-74
2022/08/13 10:34:56;;;;;;;4.70;4.30;;;23.60;99.90;;;;;;7369598;19;20367;-74
2022/08/13 10:37:21;;;;;;;4.20;3.80;;;23.50;99.90;;;;;;7373290;19;20772;-74
2022/08/13 10:39:47;;;;;;;3.67;3.38;;;23.60;99.90;;;;;;7377742;19;20387;-74
2022/08/13 10:42:12;;;;;;;4.47;4.07;;;23.90;99.90;;;;;;7376047;19;20332;-74
2022/08/13 10:44:40;;;;;;;4.47;4.07;;;24.10;99.90;;;;;;7374344;19;20316;-74
2022/08/13 10:47:06;;;;;;;4.82;3.95;;;24.30;99.90;;;;;;7376768;19;20308;-74
2022/08/13 10:49:32;;;;;;;5.57;4.80;;;24.80;99.90;;;;;;7372596;19;20353;-74
2022/08/13 10:51:58;;;;;;;4.57;4.17;;;25.10;99.90;;;;;;7374497;19;20426;-74
2022/08/13 10:54:25;;;;;;;4.55;4.15;;;25.50;99.90;;;;;;7366777;19;20396;-74
2022/08/13 10:56:50;;;;;;;4.93;4.28;;;26.00;99.90;;;;;;7374593;19;20296;-74
2022/08/13 10:59:16;;;;;;;3.90;3.60;;;26.50;99.90;;;;;;7375239;19;20339;-73
2022/08/13 11:01:42;;;;;;;4.57;4.18;;;26.80;99.90;;;;;;7375686;19;20348;-74
2022/08/13 11:04:09;;;;;;;4.32;3.92;;;26.70;99.90;;;;;;7373151;19;20348;-73
2022/08/13 11:06:36;;;;;;;4.55;4.15;;;27.00;99.90;;;;;;7374282;19;20328;-74
2022/08/13 11:09:02;;;;;;;4.40;4.00;;;27.60;99.90;;;;;;7373223;19;20344;-75
2022/08/13 11:11:28;;;;;;;5.28;4.03;;;27.90;99.90;;;;;;7375758;19;20326;-74
2022/08/13 11:13:53;;;;;;;4.10;3.70;;;28.30;99.90;;;;;;7371650;19;20336;-76
2022/08/13 11:16:56;;;;;;;4.50;4.10;;;28.00;99.90;;;;;;7373311;19;20307;-75
2022/08/13 11:19:14;;;;;;;5.22;4.40;;;27.90;99.90;;;;;;7275045;19;2004387;-76
2022/08/13 11:21:43;;;;;;;3.75;3.45;;;27.60;99.90;;;;;;7375260;19;20329;-76
2022/08/13 11:24:09;;;;;;;5.63;4.13;;;27.70;99.90;;;;;;7371071;19;20349;-75
2022/08/13 11:26:34;;;;;;;3.97;3.40;;;27.70;99.90;;;;;;7375787;19;20329;-76
2022/08/13 11:29:00;;;;;;;4.03;3.73;;;27.70;99.90;;;;;;7375367;19;20324;-75
2022/08/13 11:31:26;;;;;;;4.43;4.03;;;27.70;99.90;;;;;;7377402;19;20668;-75
2022/08/13 11:33:51;;;;;;;4.35;4.03;;;27.60;99.90;;;;;;7369914;19;20857;-75
2022/08/13 11:36:17;;;;;;;4.20;3.80;;;27.50;99.90;;;;;;7370501;19;20448;-75
2022/08/13 11:38:42;;;;;;;4.43;4.07;;;27.60;99.90;;;;;;7372706;19;21188;-75
2022/08/13 11:41:08;;;;;;;4.10;3.60;;;27.70;99.90;;;;;;7372127;19;20464;-75
2022/08/13 11:43:33;;;;;;;4.50;4.10;;;27.70;99.90;;;;;;7374599;19;20357;-75
2022/08/13 11:45:59;;;;;;;4.23;3.83;;;27.60;99.90;;;;;;7372636;19;20844;-75
2022/08/13 11:48:25;;;;;;;5.35;4.00;;;27.70;99.90;;;;;;7374239;19;20313;-76
2022/08/13 11:50:51;;;;;;;4.32;3.92;;;27.60;99.90;;;;;;7374910;19;20340;-75
2022/08/13 11:53:17;;;;;;;6.10;4.20;;;27.70;99.90;;;;;;7369614;19;20801;-75
2022/08/13 11:55:43;;;;;;;4.10;3.70;;;28.10;99.90;;;;;;7368566;19;20362;-75
2022/08/13 11:58:08;;;;;;;4.60;4.20;;;28.30;99.90;;;;;;7372016;19;20337;-75
2022/08/13 12:00:35;;;;;;;5.72;4.38;;;28.70;99.90;;;;;;7374499;19;20430;-75
2022/08/13 12:03:00;;;;;;;4.53;4.13;;;29.00;99.90;;;;;;7382985;19;20969;-75
2022/08/13 12:05:26;;;;;;;6.27;4.53;;;29.10;99.90;;;;;;7377131;19;20343;-76
2022/08/13 12:07:52;;;;;;;4.17;3.77;;;28.80;99.90;;;;;;7380476;19;20308;-76
2022/08/13 12:10:17;;;;;;;4.18;3.70;;;28.90;99.90;;;;;;7381344;19;20348;-75
2022/08/13 12:12:44;;;;;;;3.90;3.50;;;29.00;99.90;;;;;;7382578;19;20349;-75
2022/08/13 12:15:10;;;;;;;4.13;3.83;;;29.20;99.90;;;;;;7377671;19;20324;-76
2022/08/13 12:17:35;;;;;;;4.00;3.55;;;29.20;99.90;;;;;;7378081;19;20337;-75
2022/08/13 12:20:01;;;;;;;4.43;4.03;;;29.30;99.90;;;;;;7381036;19;20861;-75
2022/08/13 12:22:26;;;;;;;5.10;4.25;;;29.30;99.90;;;;;;7383071;19;20335;-76
2022/08/13 12:24:52;;;;;;;4.22;3.85;;;29.10;99.90;;;;;;7382198;19;20331;-76
2022/08/13 12:27:18;;;;;;;4.32;4.00;;;29.20;99.90;;;;;;7380533;19;20359;-76
2022/08/13 12:29:44;;;;;;;4.38;3.97;;;29.20;99.90;;;;;;7382581;19;20335;-76
2022/08/13 12:32:09;;;;;;;4.68;4.28;;;29.30;99.90;;;;;;7381185;19;20316;-76
2022/08/13 12:34:37;;;;;;;4.25;3.90;;;29.20;99.90;;;;;;7377747;19;20340;-76
2022/08/13 12:37:02;;;;;;;4.55;4.13;;;29.00;99.90;;;;;;7379641;19;20340;-76
2022/08/13 12:39:28;;;;;;;4.85;4.00;;;29.20;99.90;;;;;;7382484;19;20372;-75
2022/08/13 12:41:54;;;;;;;4.37;3.97;;;29.50;99.90;;;;;;7379735;19;21123;-75
2022/08/13 12:44:19;;;;;;;5.67;4.10;;;29.90;99.90;;;;;;7378803;19;20337;-76
2022/08/13 12:46:45;;;;;;;4.50;3.90;;;29.80;99.90;;;;;;7378546;19;20999;-76
2022/08/13 12:49:11;;;;;;;4.20;3.90;;;29.40;99.90;;;;;;7378948;19;20388;-76
2022/08/13 12:51:37;;;;;;;4.47;4.07;;;29.20;99.90;;;;;;7379183;19;21014;-76
2022/08/13 12:54:02;;;;;;;4.70;3.85;;;28.80;99.90;;;;;;7347368;19;20301;-75
2022/08/13 12:56:28;;;;;;;4.82;3.53;;;28.70;99.90;;;;;;7375715;19;20321;-76
2022/08/13 12:58:54;;;;;;;3.85;3.55;;;28.60;99.90;;;;;;7379944;19;20328;-76
2022/08/13 13:01:19;;;;;;;3.83;3.53;;;28.70;99.90;;;;;;7376953;19;20655;-76
2022/08/13 13:03:45;;;;;;;3.40;3.10;;;28.70;99.90;;;;;;7378375;19;20337;-76
2022/08/13 13:06:10;;;;;;;4.72;4.10;;;28.90;99.90;;;;;;7377098;19;20944;-76
2022/08/13 13:08:36;;;;;;;3.40;3.10;;;29.20;99.90;;;;;;7379163;19;20324;-76
2022/08/13 13:11:08;;;;;;;3.50;3.20;;;29.30;99.90;;;;;;7379855;19;20320;-76
2022/08/13 13:13:35;;;;;;;3.80;3.50;;;29.40;99.90;;;;;;7375935;19;20378;-76